KCWA/CWA METAR and TAF weather

Enter ICAO airport designator
Station Type Date Time Source
KCWA METAR 2018/04/23 10:47 UTC NOAA

KCWA 231047Z 00000KT 10SM SCT180 04/M04 A3028


Station Type Date Time Source
KCWA Decoded METAR 2018/04/23 10:47 UTC NOAA

Mosinee / Central Wisconsin, WI, United States (KCWA) 44-47N 089-40W
Apr 23, 2018 - 06:47 AM EDT / 2018.04.23 1047 UTC
Wind: Calm:0
Visibility: 10 mile(s):0
Sky conditions: partly cloudy
Temperature: 39 F (4 C)
Dew Point: 24 F (-4 C)
Relative Humidity: 55%
Pressure (altimeter): 30.28 in. Hg (1025 hPa)
ob: KCWA 231047Z 00000KT 10SM SCT180 04/M04 A3028
cycle: 11

Station Type Date Time Source
KCWA TAF 2018/04/23 12:22 UTC NOAA

TAF KCWA 231120Z 2312/2412 VRB03KT P6SM SCT250


Example: see airport list